createdAt,value
2023-05-18T00:01:25.413Z,7.10
2023-05-18T00:03:56.362Z,7.10
2023-05-18T00:06:26.278Z,7.04
2023-05-18T00:08:55.968Z,7.07
2023-05-18T00:11:25.693Z,6.94
2023-05-18T00:13:57.924Z,6.77
2023-05-18T00:16:27.657Z,7.03
2023-05-18T00:18:57.406Z,7.02
2023-05-18T00:21:30.872Z,6.84
2023-05-18T00:24:00.612Z,6.85
2023-05-18T00:26:30.336Z,6.99
2023-05-18T00:29:02.866Z,7.15
2023-05-18T00:31:36.275Z,6.86
2023-05-18T00:34:06.630Z,7.02
2023-05-18T00:36:37.396Z,6.23
2023-05-18T00:39:09.265Z,5.93
2023-05-18T00:41:39.226Z,5.69
2023-05-18T00:44:11.552Z,5.33
2023-05-18T00:46:41.730Z,5.07
2023-05-18T00:49:11.641Z,4.79
2023-05-18T00:51:42.123Z,5.07
2023-05-18T00:54:11.906Z,4.94
2023-05-18T00:56:43.146Z,5.10
2023-05-18T00:59:16.343Z,5.12
2023-05-18T01:01:47.023Z,5.58
2023-05-18T01:04:16.956Z,5.10
2023-05-18T01:06:47.436Z,5.16
2023-05-18T01:09:18.033Z,5.37
2023-05-18T01:11:58.799Z,5.21
2023-05-18T01:14:38.673Z,4.82
2023-05-18T01:17:22.587Z,4.49
2023-05-18T01:20:14.794Z,4.71
2023-05-18T01:23:02.291Z,4.78
2023-05-18T01:25:37.557Z,4.52
2023-05-18T01:28:17.049Z,4.57
2023-05-18T01:30:47.699Z,4.57
2023-05-18T01:33:17.617Z,4.45
2023-05-18T01:35:48.873Z,4.62
2023-05-18T01:38:20.581Z,4.56
2023-05-18T01:41:01.920Z,4.42
2023-05-18T01:43:37.441Z,4.38
2023-05-18T01:46:12.436Z,4.45
2023-05-18T01:48:47.026Z,4.11
2023-05-18T01:51:20.280Z,4.25
2023-05-18T01:53:58.001Z,4.15
2023-05-18T01:56:29.051Z,4.07
2023-05-18T01:59:01.760Z,4.18
2023-05-18T02:01:32.708Z,4.42
2023-05-18T02:04:02.594Z,4.64
2023-05-18T02:06:33.752Z,4.10
2023-05-18T02:09:04.227Z,4.29
2023-05-18T02:11:34.105Z,4.00
2023-05-18T02:14:06.816Z,4.05
2023-05-18T02:16:36.611Z,4.02
2023-05-18T02:19:06.712Z,4.53
2023-05-18T02:21:36.626Z,4.80
2023-05-18T02:24:06.842Z,4.62
2023-05-18T02:26:37.835Z,4.51
2023-05-18T02:29:11.972Z,4.71
2023-05-18T02:31:42.041Z,4.41
2023-05-18T02:34:11.955Z,4.77
2023-05-18T02:36:42.928Z,4.39
2023-05-18T02:39:13.240Z,4.32
2023-05-18T02:41:42.980Z,4.36
2023-05-18T02:44:15.252Z,4.52
2023-05-18T02:46:45.572Z,4.59
2023-05-18T02:49:15.334Z,4.79
2023-05-18T02:51:45.626Z,5.07
2023-05-18T02:54:15.846Z,5.30
2023-05-18T02:56:46.507Z,4.76
2023-05-18T02:59:32.063Z,4.78
2023-05-18T03:02:01.823Z,5.10
2023-05-18T03:04:32.216Z,4.40
2023-05-18T03:07:02.998Z,4.05
2023-05-18T03:09:33.010Z,4.02
2023-05-18T03:12:02.678Z,4.43
2023-05-18T03:14:35.045Z,4.29
2023-05-18T03:17:06.218Z,4.57
2023-05-18T03:19:37.463Z,3.76
2023-05-18T03:22:07.712Z,3.78
2023-05-18T03:24:40.380Z,3.59
2023-05-18T03:27:16.799Z,3.82
2023-05-18T03:29:49.856Z,3.94
2023-05-18T03:32:19.736Z,4.21
2023-05-18T03:34:51.326Z,4.11
2023-05-18T03:37:21.889Z,3.87
2023-05-18T03:39:51.600Z,3.78
2023-05-18T03:42:23.145Z,4.34
2023-05-18T03:44:55.429Z,4.02
2023-05-18T03:47:25.205Z,4.16
2023-05-18T03:49:57.871Z,3.97
2023-05-18T03:52:30.120Z,3.99
2023-05-18T03:54:59.997Z,4.40
2023-05-18T03:57:31.136Z,4.26
2023-05-18T04:00:13.758Z,4.26
2023-05-18T04:02:52.072Z,4.78
2023-05-18T04:05:26.399Z,4.60
2023-05-18T04:07:57.664Z,4.82
2023-05-18T04:10:27.412Z,5.70
2023-05-18T04:12:57.117Z,5.27
2023-05-18T04:15:29.632Z,4.92
2023-05-18T04:17:59.967Z,4.93
2023-05-18T04:20:29.961Z,4.80
2023-05-18T04:23:00.324Z,5.17
2023-05-18T04:25:30.693Z,5.39
2023-05-18T04:28:00.648Z,5.39
2023-05-18T04:30:33.518Z,5.56
2023-05-18T04:33:04.541Z,5.98
2023-05-18T04:35:34.465Z,6.12
2023-05-18T04:38:05.493Z,6.23
2023-05-18T04:40:38.263Z,6.68
2023-05-18T04:43:08.595Z,6.18
2023-05-18T04:45:41.085Z,6.09
2023-05-18T04:48:11.227Z,6.54
2023-05-18T04:50:42.211Z,7.64
2023-05-18T04:53:12.627Z,7.43
2023-05-18T04:55:42.976Z,7.76
2023-05-18T04:58:15.251Z,8.12
2023-05-18T05:00:48.141Z,8.08
2023-05-18T05:03:18.038Z,8.36
2023-05-18T05:05:48.005Z,8.24
2023-05-18T05:08:18.073Z,7.92
2023-05-18T05:10:48.022Z,7.23
2023-05-18T05:13:18.088Z,6.89
2023-05-18T05:15:50.892Z,7.79
2023-05-18T05:18:20.669Z,8.44
2023-05-18T05:20:52.919Z,8.73
2023-05-18T05:23:22.784Z,8.08
2023-05-18T05:25:53.141Z,8.79
2023-05-18T05:28:23.951Z,8.50
2023-05-18T05:30:56.344Z,7.90
2023-05-18T05:33:26.046Z,8.70
2023-05-18T05:35:56.238Z,8.43
2023-05-18T05:38:26.008Z,9.33
2023-05-18T05:40:56.040Z,9.52
2023-05-18T05:43:25.979Z,9.22
2023-05-18T05:45:58.299Z,8.42
2023-05-18T05:48:28.394Z,10.35
2023-05-18T05:50:58.352Z,10.66
2023-05-18T05:53:29.883Z,10.51
2023-05-18T05:55:59.787Z,9.90
2023-05-18T05:58:29.695Z,10.77
2023-05-18T06:01:04.892Z,10.04
2023-05-18T06:03:36.175Z,9.66
2023-05-18T06:06:09.008Z,9.62
2023-05-18T06:08:39.001Z,9.46
2023-05-18T06:11:11.386Z,11.59
2023-05-18T06:13:42.392Z,11.61
2023-05-18T06:16:14.763Z,11.50
2023-05-18T06:18:44.864Z,11.37
2023-05-18T06:21:14.722Z,11.08
2023-05-18T06:23:44.821Z,10.61
2023-05-18T06:26:33.207Z,11.97
2023-05-18T06:29:21.563Z,10.74
2023-05-18T06:32:10.096Z,11.16
2023-05-18T06:34:46.011Z,12.07
2023-05-18T06:37:16.126Z,12.04
2023-05-18T06:39:45.853Z,11.61
2023-05-18T06:42:15.608Z,12.24
2023-05-18T06:44:54.562Z,11.38
2023-05-18T06:47:42.642Z,12.72
2023-05-18T06:50:13.286Z,11.75
2023-05-18T06:52:42.979Z,12.90
2023-05-18T06:55:14.731Z,11.19
2023-05-18T06:57:44.480Z,11.73
2023-05-18T07:00:15.395Z,12.50
2023-05-18T07:02:48.094Z,10.50
2023-05-18T07:05:17.904Z,9.96
2023-05-18T07:07:47.859Z,10.44
2023-05-18T07:10:17.688Z,9.26
2023-05-18T07:12:47.423Z,9.28
2023-05-18T07:15:17.454Z,9.60
2023-05-18T07:17:49.767Z,10.34
2023-05-18T07:20:19.513Z,10.33
2023-05-18T07:22:49.617Z,11.80
2023-05-18T07:25:19.766Z,12.33
2023-05-18T07:27:49.465Z,12.15
2023-05-18T07:30:19.180Z,12.25
2023-05-18T07:32:51.651Z,11.06
2023-05-18T07:35:31.174Z,10.85
2023-05-18T07:38:01.088Z,9.94
2023-05-18T07:40:30.765Z,10.59
2023-05-18T07:43:00.606Z,11.24
2023-05-18T07:45:30.490Z,12.45
2023-05-18T07:48:03.230Z,13.52
2023-05-18T07:50:32.976Z,12.49
2023-05-18T07:53:02.953Z,12.20
2023-05-18T07:55:33.242Z,12.17
2023-05-18T07:58:03.808Z,12.61
2023-05-18T08:00:33.890Z,13.00
2023-05-18T08:03:07.078Z,13.13
2023-05-18T08:05:37.046Z,11.99
2023-05-18T08:08:08.385Z,11.63
2023-05-18T08:10:38.110Z,11.16
2023-05-18T08:13:07.857Z,11.14
2023-05-18T08:15:39.002Z,11.06
2023-05-18T08:18:11.313Z,12.71
2023-05-18T08:20:41.107Z,12.82
2023-05-18T08:23:11.022Z,13.84
2023-05-18T08:25:40.738Z,14.84
2023-05-18T08:28:10.912Z,12.46
2023-05-18T08:30:40.684Z,14.31
2023-05-18T08:33:13.328Z,12.78
2023-05-18T08:35:43.172Z,12.90
2023-05-18T08:38:12.923Z,13.63
2023-05-18T08:40:49.583Z,12.88
2023-05-18T08:43:30.019Z,13.23
2023-05-18T08:46:06.973Z,13.73
2023-05-18T08:48:39.558Z,13.22
2023-05-18T08:51:11.421Z,13.06
2023-05-18T08:53:42.011Z,12.56
2023-05-18T08:56:13.806Z,12.51
2023-05-18T08:58:53.273Z,12.23
2023-05-18T09:01:31.272Z,12.03
2023-05-18T09:04:04.364Z,12.46
2023-05-18T09:06:36.022Z,12.71
2023-05-18T09:09:06.965Z,13.45
2023-05-18T09:11:37.443Z,12.97
2023-05-18T09:14:07.143Z,12.54
2023-05-18T09:16:36.926Z,13.61
2023-05-18T09:19:11.494Z,13.23
2023-05-18T09:21:41.994Z,12.52
2023-05-18T09:24:11.965Z,13.58
2023-05-18T09:26:41.915Z,13.25
2023-05-18T09:29:19.865Z,14.04
2023-05-18T09:31:50.655Z,12.98
2023-05-18T09:34:24.768Z,12.68
2023-05-18T09:36:57.975Z,13.13
2023-05-18T09:39:27.785Z,11.92
2023-05-18T09:42:00.934Z,13.43
2023-05-18T09:44:37.588Z,12.72
2023-05-18T09:47:12.247Z,11.78
2023-05-18T09:49:46.857Z,13.37
2023-05-18T09:52:16.630Z,12.61
2023-05-18T09:54:46.622Z,12.79
2023-05-18T09:57:16.402Z,13.10
2023-05-18T09:59:46.155Z,13.21
2023-05-18T10:02:18.539Z,14.71
2023-05-18T10:04:50.911Z,14.01
2023-05-18T10:07:21.062Z,13.29
2023-05-18T10:10:05.080Z,13.37
2023-05-18T10:12:36.242Z,13.59
2023-05-18T10:15:06.185Z,14.80
2023-05-18T10:17:38.008Z,14.89
2023-05-18T10:20:12.847Z,13.90
2023-05-18T10:22:43.470Z,13.64
2023-05-18T10:25:14.416Z,13.66
2023-05-18T10:27:45.806Z,14.44
2023-05-18T10:30:17.920Z,14.65
2023-05-18T10:32:48.965Z,13.64
2023-05-18T10:35:22.079Z,14.21
2023-05-18T10:37:54.335Z,13.71
2023-05-18T10:40:24.456Z,13.84
2023-05-18T10:42:56.289Z,13.39
2023-05-18T10:45:26.732Z,12.72
2023-05-18T10:47:57.903Z,13.07
2023-05-18T10:50:31.294Z,12.97
2023-05-18T10:53:02.472Z,13.01
2023-05-18T10:55:32.373Z,13.70
2023-05-18T10:58:08.369Z,14.17
2023-05-18T11:00:41.306Z,14.48
2023-05-18T11:03:15.179Z,14.65
2023-05-18T11:05:52.624Z,15.26
2023-05-18T11:08:29.416Z,15.70
2023-05-18T11:11:04.704Z,16.21
2023-05-18T11:13:36.189Z,15.74
2023-05-18T11:16:10.019Z,15.07
2023-05-18T11:18:43.227Z,15.87
2023-05-18T11:21:35.874Z,15.11
2023-05-18T11:24:28.240Z,14.08
2023-05-18T11:26:59.673Z,15.22
2023-05-18T11:29:35.086Z,13.57
2023-05-18T11:32:05.475Z,13.23
2023-05-18T11:34:47.802Z,12.90
2023-05-18T11:37:41.286Z,14.92
2023-05-18T11:40:13.884Z,15.50
2023-05-18T11:42:43.548Z,15.12
2023-05-18T11:45:15.355Z,14.82
2023-05-18T11:47:45.113Z,13.69
2023-05-18T11:50:16.854Z,14.28
2023-05-18T11:52:55.275Z,14.49
2023-05-18T11:55:25.205Z,14.87
2023-05-18T11:57:55.333Z,14.19
2023-05-18T12:00:27.712Z,14.41
2023-05-18T12:03:00.041Z,13.92
2023-05-18T12:05:34.451Z,13.61
2023-05-18T12:08:07.577Z,14.32
2023-05-18T12:10:37.733Z,15.24
2023-05-18T12:13:08.614Z,16.11
2023-05-18T12:15:39.596Z,15.23
2023-05-18T12:18:09.660Z,15.17
2023-05-18T12:20:42.577Z,15.52
2023-05-18T12:23:14.814Z,16.04
2023-05-18T12:25:44.527Z,14.79
2023-05-18T12:28:14.249Z,14.44
2023-05-18T12:30:44.849Z,15.00
2023-05-18T12:33:15.267Z,14.59
2023-05-18T12:35:45.430Z,14.79
2023-05-18T12:38:20.162Z,15.41
2023-05-18T12:40:50.607Z,15.46
2023-05-18T12:43:20.498Z,15.51
2023-05-18T12:45:50.356Z,15.26
2023-05-18T12:48:20.156Z,15.59
2023-05-18T12:50:50.847Z,15.85
2023-05-18T12:53:24.260Z,16.43
2023-05-18T12:56:01.897Z,16.42
2023-05-18T12:58:33.109Z,15.25
2023-05-18T13:01:10.735Z,14.53
2023-05-18T13:03:42.999Z,15.47
2023-05-18T13:06:12.837Z,14.76
2023-05-18T13:08:45.154Z,15.63
2023-05-18T13:11:16.900Z,16.26
2023-05-18T13:14:02.252Z,16.64
2023-05-18T13:16:32.380Z,16.10
2023-05-18T13:19:03.373Z,15.50
2023-05-18T13:21:34.589Z,14.64
2023-05-18T13:24:07.823Z,15.61
2023-05-18T13:26:37.505Z,16.46
2023-05-18T13:29:07.478Z,16.37
2023-05-18T13:31:37.249Z,14.62
2023-05-18T13:34:06.956Z,15.35
2023-05-18T13:36:37.246Z,14.51
2023-05-18T13:39:09.871Z,14.26
2023-05-18T13:41:39.493Z,14.63
2023-05-18T13:44:09.271Z,15.16
2023-05-18T13:46:39.626Z,16.31
2023-05-18T13:49:09.273Z,16.55
2023-05-18T13:51:38.911Z,16.05
2023-05-18T13:54:11.140Z,15.29
2023-05-18T13:56:40.782Z,14.36
2023-05-18T13:59:10.450Z,15.42
2023-05-18T14:01:42.611Z,14.91
2023-05-18T14:04:12.379Z,15.11
2023-05-18T14:06:42.202Z,15.59
2023-05-18T14:09:14.398Z,15.20
2023-05-18T14:11:44.023Z,15.49
2023-05-18T14:14:13.709Z,15.39
2023-05-18T14:16:43.397Z,15.11
2023-05-18T14:19:13.122Z,15.78
2023-05-18T14:21:42.876Z,15.39
2023-05-18T14:24:15.494Z,15.34
2023-05-18T14:26:45.166Z,15.60
2023-05-18T14:29:14.971Z,16.12
2023-05-18T14:31:44.602Z,16.14
2023-05-18T14:34:14.234Z,15.74
2023-05-18T14:36:43.873Z,15.12
2023-05-18T14:39:16.127Z,15.47
2023-05-18T14:41:45.775Z,16.07
2023-05-18T14:44:15.612Z,16.04
2023-05-18T14:46:45.333Z,15.46
2023-05-18T14:49:15.097Z,15.55
2023-05-18T14:51:44.845Z,14.90
2023-05-18T14:54:18.376Z,15.13
2023-05-18T14:56:48.326Z,15.66
2023-05-18T14:59:17.955Z,14.94
2023-05-18T15:01:47.638Z,15.93
2023-05-18T15:04:17.663Z,16.96
2023-05-18T15:06:47.426Z,17.04
2023-05-18T15:09:19.694Z,16.06
2023-05-18T15:11:49.499Z,15.06
2023-05-18T15:14:19.745Z,15.64
2023-05-18T15:16:49.438Z,15.06
2023-05-18T15:19:19.326Z,15.47
2023-05-18T15:21:49.049Z,16.32
2023-05-18T15:24:21.314Z,16.28
2023-05-18T15:26:51.409Z,16.50
2023-05-18T15:29:21.841Z,16.13
2023-05-18T15:31:52.875Z,16.51
2023-05-18T15:34:22.588Z,16.14
2023-05-18T15:36:53.562Z,15.83
2023-05-18T15:39:25.806Z,14.77
2023-05-18T15:41:56.537Z,14.68
2023-05-18T15:44:27.549Z,14.78
2023-05-18T15:46:59.143Z,15.11
2023-05-18T15:49:28.933Z,15.22
2023-05-18T15:51:58.646Z,15.91
2023-05-18T15:54:30.996Z,15.85
2023-05-18T15:57:01.097Z,15.96
2023-05-18T15:59:30.787Z,16.31
2023-05-18T16:02:00.512Z,16.52
2023-05-18T16:04:30.136Z,15.50
2023-05-18T16:06:59.850Z,15.85
2023-05-18T16:09:32.164Z,14.96
2023-05-18T16:12:01.900Z,15.27
2023-05-18T16:14:31.539Z,15.47
2023-05-18T16:17:02.244Z,15.44
2023-05-18T16:19:35.943Z,15.15
2023-05-18T16:22:05.690Z,15.49
2023-05-18T16:24:38.312Z,15.11
2023-05-18T16:27:08.642Z,15.01
2023-05-18T16:29:38.262Z,15.42
2023-05-18T16:32:08.679Z,15.17
2023-05-18T16:34:38.312Z,15.49
2023-05-18T16:37:08.206Z,15.54
2023-05-18T16:39:40.646Z,15.85
2023-05-18T16:42:12.511Z,15.40
2023-05-18T16:44:42.188Z,15.66
2023-05-18T16:47:11.902Z,15.78
2023-05-18T16:49:44.212Z,16.15
2023-05-18T16:52:16.014Z,15.88
2023-05-18T16:54:48.567Z,16.34
2023-05-18T16:57:20.274Z,16.37
2023-05-18T16:59:50.469Z,15.24
2023-05-18T17:02:20.388Z,15.55
2023-05-18T17:04:50.644Z,15.42
2023-05-18T17:07:20.545Z,15.17
2023-05-18T17:09:52.901Z,15.18
2023-05-18T17:12:22.611Z,15.63
2023-05-18T17:14:52.432Z,15.16
2023-05-18T17:17:22.323Z,15.16
2023-05-18T17:19:52.140Z,15.16
2023-05-18T17:22:21.958Z,15.12
2023-05-18T17:24:54.339Z,15.26
2023-05-18T17:27:24.637Z,15.49
2023-05-18T17:29:54.419Z,14.71
2023-05-18T17:32:24.146Z,14.96
2023-05-18T17:34:53.829Z,15.88
2023-05-18T17:37:23.967Z,15.34
2023-05-18T17:39:56.359Z,15.38
2023-05-18T17:42:26.096Z,14.83
2023-05-18T17:44:55.825Z,14.30
2023-05-18T17:47:25.698Z,14.56
2023-05-18T17:49:55.508Z,14.82
2023-05-18T17:52:25.293Z,15.05
2023-05-18T17:54:57.530Z,14.56
2023-05-18T17:57:28.249Z,14.56
2023-05-18T17:59:57.994Z,14.79
2023-05-18T18:02:28.115Z,14.64
2023-05-18T18:04:58.116Z,14.97
2023-05-18T18:07:28.368Z,14.67
2023-05-18T18:10:01.286Z,14.54
2023-05-18T18:12:31.492Z,14.70
2023-05-18T18:15:01.305Z,14.71
2023-05-18T18:17:31.535Z,14.62
2023-05-18T18:20:01.423Z,14.96
2023-05-18T18:22:33.088Z,14.97
2023-05-18T18:25:06.949Z,15.37
2023-05-18T18:27:36.649Z,14.91
2023-05-18T18:30:07.141Z,15.15
2023-05-18T18:32:37.009Z,15.42
2023-05-18T18:35:07.282Z,15.32
2023-05-18T18:37:37.212Z,15.13
2023-05-18T18:40:11.768Z,14.88
2023-05-18T18:42:41.549Z,14.93
2023-05-18T18:45:14.125Z,14.82
2023-05-18T18:47:43.988Z,15.18
2023-05-18T18:50:14.204Z,14.89
2023-05-18T18:52:43.921Z,14.76
2023-05-18T18:55:17.195Z,15.08
2023-05-18T18:57:47.293Z,14.20
2023-05-18T19:00:20.384Z,14.41
2023-05-18T19:02:51.443Z,14.30
2023-05-18T19:05:23.431Z,14.56
2023-05-18T19:07:56.018Z,14.67
2023-05-18T19:10:28.453Z,14.61
2023-05-18T19:13:00.220Z,13.83
2023-05-18T19:15:30.139Z,14.77
2023-05-18T19:18:00.418Z,14.54
2023-05-18T19:20:30.265Z,14.13
2023-05-18T19:23:00.314Z,14.14
2023-05-18T19:25:32.965Z,13.62
2023-05-18T19:28:03.070Z,14.11
2023-05-18T19:30:32.903Z,13.59
2023-05-18T19:33:03.158Z,13.06
2023-05-18T19:35:34.169Z,13.36
2023-05-18T19:38:05.243Z,13.06
2023-05-18T19:40:37.566Z,12.91
2023-05-18T19:43:07.476Z,13.15
2023-05-18T19:45:37.474Z,12.91
2023-05-18T19:48:07.601Z,12.93
2023-05-18T19:50:37.347Z,12.87
2023-05-18T19:53:07.071Z,13.17
2023-05-18T19:55:39.387Z,12.63
2023-05-18T19:58:09.295Z,12.92
2023-05-18T20:00:41.432Z,12.64
2023-05-18T20:03:11.270Z,12.54
2023-05-18T20:05:41.254Z,12.64
2023-05-18T20:08:12.833Z,12.92
2023-05-18T20:10:45.354Z,12.75
2023-05-18T20:13:15.096Z,12.69
2023-05-18T20:15:44.795Z,12.72
2023-05-18T20:18:14.551Z,12.70
2023-05-18T20:20:44.748Z,12.52
2023-05-18T20:23:14.489Z,12.36
2023-05-18T20:25:48.362Z,12.26
2023-05-18T20:28:18.323Z,12.47
2023-05-18T20:30:48.098Z,12.24
2023-05-18T20:33:18.358Z,12.19
2023-05-18T20:35:48.443Z,12.40
2023-05-18T20:38:18.219Z,12.32
2023-05-18T20:40:51.389Z,12.03
2023-05-18T20:43:21.442Z,11.90
2023-05-18T20:45:52.012Z,12.10
2023-05-18T20:48:25.177Z,12.09
2023-05-18T20:50:55.084Z,12.23
2023-05-18T20:53:26.124Z,12.18
2023-05-18T20:56:01.381Z,11.93
2023-05-18T20:58:34.315Z,12.20
2023-05-18T21:01:07.294Z,11.86
2023-05-18T21:03:38.599Z,11.75
2023-05-18T21:06:08.613Z,12.27
2023-05-18T21:08:38.516Z,12.47
2023-05-18T21:11:10.960Z,12.50
2023-05-18T21:13:40.722Z,13.00
2023-05-18T21:16:10.925Z,12.88
2023-05-18T21:18:40.826Z,13.14
2023-05-18T21:21:10.615Z,13.00
2023-05-18T21:23:40.416Z,12.26
2023-05-18T21:26:12.758Z,13.20
2023-05-18T21:28:42.531Z,11.61
2023-05-18T21:31:12.372Z,11.65
2023-05-18T21:33:43.348Z,11.10
2023-05-18T21:36:13.201Z,10.41
2023-05-18T21:38:42.940Z,11.14
2023-05-18T21:41:15.496Z,10.93
2023-05-18T21:43:45.243Z,10.51
2023-05-18T21:46:15.003Z,10.33
2023-05-18T21:48:44.791Z,10.88
2023-05-18T21:51:14.560Z,10.76
2023-05-18T21:53:44.289Z,10.73
2023-05-18T21:56:16.929Z,10.72
2023-05-18T21:58:46.665Z,10.66
2023-05-18T22:01:19.942Z,10.52
2023-05-18T22:03:49.817Z,10.55
2023-05-18T22:06:19.798Z,10.44
2023-05-18T22:08:50.166Z,10.58
2023-05-18T22:11:22.831Z,10.01
2023-05-18T22:13:52.571Z,10.61
2023-05-18T22:16:22.484Z,11.36
2023-05-18T22:18:52.296Z,10.52
2023-05-18T22:21:22.068Z,10.58
2023-05-18T22:23:51.825Z,10.71
2023-05-18T22:26:24.162Z,10.71
2023-05-18T22:28:53.945Z,11.15
2023-05-18T22:31:23.683Z,10.92
2023-05-18T22:33:54.127Z,11.43
2023-05-18T22:36:24.331Z,11.42
2023-05-18T22:38:54.120Z,10.97
2023-05-18T22:41:27.116Z,10.75
2023-05-18T22:43:56.824Z,10.19
2023-05-18T22:46:26.669Z,10.44
2023-05-18T22:48:56.433Z,10.38
2023-05-18T22:51:26.442Z,10.74
2023-05-18T22:53:56.205Z,10.58
2023-05-18T22:56:28.666Z,10.38
2023-05-18T22:58:58.346Z,10.40
2023-05-18T23:01:28.117Z,9.94
2023-05-18T23:03:57.890Z,9.67
2023-05-18T23:06:27.686Z,10.10
2023-05-18T23:08:58.521Z,10.36
2023-05-18T23:11:31.226Z,9.67
2023-05-18T23:14:04.342Z,9.84
2023-05-18T23:16:34.512Z,10.41
2023-05-18T23:19:04.400Z,9.85
2023-05-18T23:21:34.161Z,10.22
2023-05-18T23:24:04.762Z,10.41
2023-05-18T23:26:37.579Z,10.43
2023-05-18T23:29:07.276Z,9.76
2023-05-18T23:31:37.054Z,9.68
2023-05-18T23:34:07.290Z,10.08
2023-05-18T23:36:37.671Z,9.70
2023-05-18T23:39:08.258Z,9.84
2023-05-18T23:41:41.211Z,9.90
2023-05-18T23:44:11.585Z,9.91
2023-05-18T23:46:42.411Z,9.52
2023-05-18T23:49:12.813Z,9.82
2023-05-18T23:51:45.253Z,9.27
2023-05-18T23:54:15.909Z,9.26
2023-05-18T23:56:48.968Z,10.02
2023-05-18T23:59:19.243Z,9.86
